Time;durP1;ratioP1;P1;durP2;ratioP2;P2;SDS_P1;SDS_P2;PMS_P1;PMS_P2;Temp;Humidity;BMP_temperature;BMP_pressure;BME280_temperature;BME280_humidity;BME280_pressure;Samples;Min_cycle;Max_cycle;Signal;HPM_P1;HPM_P2
2022/12/26 00:00:10;;;;;;;199.32;80.28;;;;;;;;;;5059047;28;20045;-79
2022/12/26 00:02:55;;;;;;;217.20;81.32;;;;;;;;;;5081811;28;20021;-82
2022/12/26 00:05:41;;;;;;;190.77;80.20;;;;;;;;;;5064712;28;20509;-80
2022/12/26 00:08:27;;;;;;;208.05;82.63;;;;;;;;;;5063325;28;20486;-82
2022/12/26 00:11:13;;;;;;;224.85;82.72;;;;;;;;;;5056633;28;20398;-80
2022/12/26 00:14:05;;;;;;;210.70;70.78;;;;;;;;;;5056360;28;20045;-79
2022/12/26 00:16:51;;;;;;;180.50;69.95;;;;;;;;;;5056311;28;20049;-79
2022/12/26 00:19:36;;;;;;;185.10;70.85;;;;;;;;;;5063265;28;20046;-79
2022/12/26 00:22:22;;;;;;;192.40;66.75;;;;;;;;;;5056370;28;20037;-79
2022/12/26 00:25:07;;;;;;;210.80;74.25;;;;;;;;;;5056269;28;20040;-79
2022/12/26 00:27:53;;;;;;;205.48;73.25;;;;;;;;;;5056093;28;20045;-79
2022/12/26 00:30:38;;;;;;;213.85;86.25;;;;;;;;;;5062017;28;20078;-80
2022/12/26 00:33:23;;;;;;;208.95;77.18;;;;;;;;;;5057015;28;20040;-80
2022/12/26 00:36:14;;;;;;;161.35;65.45;;;;;;;;;;5057173;28;20041;-81
2022/12/26 00:39:01;;;;;;;145.07;60.58;;;;;;;;;;5065210;28;20041;-82
2022/12/26 00:41:47;;;;;;;146.02;55.22;;;;;;;;;;5060189;28;20428;-81
2022/12/26 00:44:32;;;;;;;249.98;92.93;;;;;;;;;;5068905;28;20417;-87
2022/12/26 00:47:17;;;;;;;344.52;131.88;;;;;;;;;;5062714;28;20048;-86
2022/12/26 00:50:03;;;;;;;520.80;198.38;;;;;;;;;;5061465;28;20037;-86
2022/12/26 00:52:48;;;;;;;338.10;110.95;;;;;;;;;;5062592;28;20502;-87
2022/12/26 00:55:34;;;;;;;176.82;59.22;;;;;;;;;;5056349;28;20041;-83
2022/12/26 00:58:20;;;;;;;154.85;49.42;;;;;;;;;;5054564;28;20057;-83
2022/12/26 01:01:16;;;;;;;120.15;45.17;;;;;;;;;;5055864;28;20056;-87
2022/12/26 01:04:01;;;;;;;135.85;47.55;;;;;;;;;;5061735;28;20049;-87
2022/12/26 01:06:48;;;;;;;147.60;49.97;;;;;;;;;;5055963;28;20041;-89
2022/12/26 01:09:37;;;;;;;145.52;47.13;;;;;;;;;;5055551;28;20041;-88
2022/12/26 01:12:22;;;;;;;162.50;50.08;;;;;;;;;;5054545;28;20048;-83
2022/12/26 01:15:08;;;;;;;147.35;48.30;;;;;;;;;;5060258;28;20044;-83
2022/12/26 01:17:53;;;;;;;118.60;43.33;;;;;;;;;;5055499;28;20479;-82
2022/12/26 01:20:39;;;;;;;151.18;42.47;;;;;;;;;;5055861;28;20045;-87
2022/12/26 01:23:24;;;;;;;126.50;45.08;;;;;;;;;;5054610;28;20430;-87
2022/12/26 01:26:09;;;;;;;183.25;51.67;;;;;;;;;;5054856;28;20040;-87
2022/12/26 01:28:54;;;;;;;187.75;59.83;;;;;;;;;;5055916;28;20040;-88
2022/12/26 01:31:40;;;;;;;195.18;59.15;;;;;;;;;;5054389;28;20053;-82
2022/12/26 01:34:25;;;;;;;149.63;50.13;;;;;;;;;;5054875;28;20045;-83
2022/12/26 01:37:12;;;;;;;121.13;47.10;;;;;;;;;;5055065;28;20398;-83
2022/12/26 01:39:57;;;;;;;117.63;44.97;;;;;;;;;;5053856;28;20049;-83
2022/12/26 01:42:43;;;;;;;173.80;50.25;;;;;;;;;;5054177;28;20045;-83
2022/12/26 01:45:30;;;;;;;120.95;47.25;;;;;;;;;;5055401;28;20052;-83
2022/12/26 01:48:21;;;;;;;127.05;48.97;;;;;;;;;;5053876;28;20045;-83
2022/12/26 01:51:06;;;;;;;135.10;53.20;;;;;;;;;;5053901;28;20049;-87
2022/12/26 01:53:56;;;;;;;148.05;51.95;;;;;;;;;;5060422;28;20391;-83
2022/12/26 01:56:44;;;;;;;154.30;50.72;;;;;;;;;;5058773;28;20049;-83
2022/12/26 01:59:31;;;;;;;123.03;47.03;;;;;;;;;;5055154;28;20044;-87
2022/12/26 02:02:19;;;;;;;130.68;46.60;;;;;;;;;;5060470;28;20044;-87
2022/12/26 02:08:21;;;;;;;117.63;43.40;;;;;;;;;;5060373;28;20049;-82
2022/12/26 02:11:19;;;;;;;118.45;40.97;;;;;;;;;;5054494;28;20048;-87
2022/12/26 02:14:06;;;;;;;92.20;38.58;;;;;;;;;;5053353;28;20080;-83
2022/12/26 02:16:51;;;;;;;100.63;41.88;;;;;;;;;;5060149;28;20036;-87
2022/12/26 02:20:02;;;;;;;106.25;41.28;;;;;;;;;;5060694;28;20045;-87
2022/12/26 02:23:07;;;;;;;99.70;36.40;;;;;;;;;;5053615;28;20044;-87
2022/12/26 02:26:10;;;;;;;85.32;32.35;;;;;;;;;;5085510;28;20032;-86
2022/12/26 02:29:24;;;;;;;77.60;30.90;;;;;;;;;;5076762;28;20049;-87
2022/12/26 02:32:47;;;;;;;57.90;27.58;;;;;;;;;;5054534;28;20045;-82
2022/12/26 02:36:05;;;;;;;76.25;32.83;;;;;;;;;;5053800;28;20048;-87
2022/12/26 02:39:22;;;;;;;74.85;32.60;;;;;;;;;;5053164;28;20037;-87
2022/12/26 02:42:43;;;;;;;87.82;35.15;;;;;;;;;;5054032;28;20402;-82
2022/12/26 02:49:09;;;;;;;80.90;34.42;;;;;;;;;;5053850;28;20048;-83
2022/12/26 03:14:15;;;;;;;90.90;39.78;;;;;;;;;;5053946;28;20049;-86
2022/12/26 03:17:20;;;;;;;;;;;;;;;;;;5054020;28;20487;-86
2022/12/26 03:20:11;;;;;;;131.18;46.78;;;;;;;;;;5045645;28;19912;-82
2022/12/26 03:23:00;;;;;;;130.10;51.83;;;;;;;;;;5053004;28;20037;-87
2022/12/26 03:30:47;;;;;;;143.95;48.72;;;;;;;;;;5060002;28;20040;-82
2022/12/26 03:32:07;;;;;;;151.40;46.42;;;;;;;;;;5053040;28;20395;-82
2022/12/26 03:34:53;;;;;;;146.05;46.85;;;;;;;;;;5053236;28;20033;-82
2022/12/26 03:37:55;;;;;;;117.78;45.15;;;;;;;;;;5052305;28;20045;-86
2022/12/26 04:19:59;;;;;;;61.55;22.00;;;;;;;;;;5056605;28;20041;-86
2022/12/26 04:44:56;;;;;;;41.22;15.43;;;;;;;;;;5080173;28;20029;-86
2022/12/26 04:50:10;;;;;;;44.08;16.50;;;;;;;;;;5077632;28;20049;-87
2022/12/26 04:50:51;;;;;;;;;;;;;;;;;;5073657;28;20041;-87
2022/12/26 04:53:36;;;;;;;37.00;14.82;;;;;;;;;;5061864;28;19912;-86
2022/12/26 04:56:21;;;;;;;34.55;15.73;;;;;;;;;;5054796;28;20037;-87
2022/12/26 04:59:07;;;;;;;30.35;14.55;;;;;;;;;;5055556;28;20041;-87
2022/12/26 05:11:03;;;;;;;36.50;16.13;;;;;;;;;;5055922;28;20470;-87
2022/12/26 05:13:51;;;;;;;43.55;19.13;;;;;;;;;;5055441;28;20037;-83
2022/12/26 05:30:08;;;;;;;39.03;15.73;;;;;;;;;;5055788;28;20049;-87
2022/12/26 05:35:57;;;;;;;52.92;17.17;;;;;;;;;;5055091;28;20049;-89
2022/12/26 05:38:43;;;;;;;63.65;18.42;;;;;;;;;;5053757;28;20041;-83
2022/12/26 05:41:27;;;;;;;103.68;17.48;;;;;;;;;;5053922;28;20049;-83
2022/12/26 05:44:13;;;;;;;65.57;20.15;;;;;;;;;;5046828;28;20041;-83
2022/12/26 05:46:59;;;;;;;56.08;19.95;;;;;;;;;;5054030;28;20041;-87
2022/12/26 05:49:44;;;;;;;71.22;20.13;;;;;;;;;;5060543;28;20482;-83
2022/12/26 05:52:29;;;;;;;60.50;20.05;;;;;;;;;;5054933;28;20040;-83
2022/12/26 05:55:15;;;;;;;70.70;20.55;;;;;;;;;;5054939;28;20048;-83
2022/12/26 05:58:03;;;;;;;62.60;20.02;;;;;;;;;;5058692;28;20045;-87
2022/12/26 06:00:49;;;;;;;65.72;21.33;;;;;;;;;;5048709;28;20041;-82
2022/12/26 06:03:35;;;;;;;66.85;20.75;;;;;;;;;;5054343;28;20049;-87
2022/12/26 06:06:22;;;;;;;79.90;24.60;;;;;;;;;;5054652;28;20474;-84
2022/12/26 06:09:08;;;;;;;49.13;21.58;;;;;;;;;;5051589;28;20071;-90
2022/12/26 06:11:53;;;;;;;50.72;20.58;;;;;;;;;;5059388;28;20040;-89
2022/12/26 06:14:38;;;;;;;80.35;22.33;;;;;;;;;;5058423;28;20045;-89
2022/12/26 06:17:23;;;;;;;71.43;23.13;;;;;;;;;;5059998;28;20037;-88
2022/12/26 06:20:09;;;;;;;81.55;24.15;;;;;;;;;;5054495;28;20423;-83
2022/12/26 06:22:54;;;;;;;65.65;21.75;;;;;;;;;;5053608;28;20494;-90
2022/12/26 06:25:40;;;;;;;70.00;23.33;;;;;;;;;;5054751;28;20112;-84
2022/12/26 06:28:26;;;;;;;81.90;22.17;;;;;;;;;;5053154;28;20040;-83
2022/12/26 06:31:19;;;;;;;68.75;22.23;;;;;;;;;;5060158;28;20474;-84
2022/12/26 06:34:03;;;;;;;64.57;22.52;;;;;;;;;;5054071;28;20041;-90
2022/12/26 06:36:48;;;;;;;79.97;22.50;;;;;;;;;;5053259;28;20049;-83
2022/12/26 06:39:34;;;;;;;95.30;24.98;;;;;;;;;;5054033;28;20040;-90
2022/12/26 06:42:19;;;;;;;52.67;21.48;;;;;;;;;;5054140;28;20045;-84
2022/12/26 06:45:05;;;;;;;34.85;17.08;;;;;;;;;;5054143;28;20049;-90
2022/12/26 06:47:51;;;;;;;73.88;27.45;;;;;;;;;;5054305;28;20402;-89
2022/12/26 06:50:36;;;;;;;78.43;23.52;;;;;;;;;;5054760;28;20041;-85
2022/12/26 06:53:24;;;;;;;53.85;20.88;;;;;;;;;;5057130;28;20040;-92
2022/12/26 06:56:19;;;;;;;47.65;21.40;;;;;;;;;;5053815;28;20045;-91
2022/12/26 06:59:05;;;;;;;15.50;8.63;;;;;;;;;;5060139;28;20044;-83
2022/12/26 07:01:50;;;;;;;33.42;16.73;;;;;;;;;;5053252;28;20486;-88
2022/12/26 07:04:35;;;;;;;38.08;20.42;;;;;;;;;;5077931;28;20029;-82
2022/12/26 07:07:21;;;;;;;79.95;30.40;;;;;;;;;;5065339;28;20048;-80
2022/12/26 07:10:07;;;;;;;99.03;31.65;;;;;;;;;;5058590;28;20111;-87
2022/12/26 07:12:52;;;;;;;67.00;30.02;;;;;;;;;;5052823;28;20398;-82
2022/12/26 07:15:37;;;;;;;66.15;27.90;;;;;;;;;;5053393;28;20040;-82
2022/12/26 07:18:23;;;;;;;87.85;30.38;;;;;;;;;;5052522;28;20037;-81
2022/12/26 07:21:12;;;;;;;83.25;30.42;;;;;;;;;;5052235;28;20045;-82
2022/12/26 07:23:57;;;;;;;118.32;33.42;;;;;;;;;;5052799;28;20495;-88
2022/12/26 07:26:43;;;;;;;91.68;30.10;;;;;;;;;;5045008;28;20439;-88
2022/12/26 07:29:32;;;;;;;111.55;31.60;;;;;;;;;;5060458;28;20041;-89
2022/12/26 07:32:18;;;;;;;90.13;34.25;;;;;;;;;;5053630;28;20049;-81
2022/12/26 07:35:04;;;;;;;74.35;29.20;;;;;;;;;;5059084;28;20041;-82
2022/12/26 07:37:49;;;;;;;73.63;30.50;;;;;;;;;;5058716;28;20049;-81
2022/12/26 07:40:34;;;;;;;83.32;29.70;;;;;;;;;;5052209;28;20478;-82
2022/12/26 07:43:19;;;;;;;82.72;31.60;;;;;;;;;;5053194;28;20037;-87
2022/12/26 07:46:05;;;;;;;66.28;25.13;;;;;;;;;;5054007;28;20033;-86
2022/12/26 07:48:50;;;;;;;47.30;20.60;;;;;;;;;;5057558;28;20052;-89
2022/12/26 07:51:36;;;;;;;50.97;21.38;;;;;;;;;;5057545;28;20505;-88
2022/12/26 07:54:22;;;;;;;62.05;27.63;;;;;;;;;;5057372;28;20041;-81
2022/12/26 07:57:07;;;;;;;92.45;31.38;;;;;;;;;;5055125;28;20494;-81
2022/12/26 07:59:52;;;;;;;104.32;37.25;;;;;;;;;;5063065;28;20041;-80
2022/12/26 08:02:37;;;;;;;110.78;39.58;;;;;;;;;;5056914;28;20401;-83
2022/12/26 08:05:29;;;;;;;121.95;41.47;;;;;;;;;;5057056;28;20041;-82
2022/12/26 08:08:15;;;;;;;132.68;42.17;;;;;;;;;;5057442;28;20048;-84
2022/12/26 08:11:02;;;;;;;129.38;41.88;;;;;;;;;;5056121;28;20045;-84
2022/12/26 08:13:47;;;;;;;147.65;49.83;;;;;;;;;;5057498;28;20049;-86
2022/12/26 08:16:32;;;;;;;133.77;45.20;;;;;;;;;;5056338;28;20033;-85
2022/12/26 08:19:18;;;;;;;130.43;39.90;;;;;;;;;;5059664;28;20044;-77
2022/12/26 08:22:04;;;;;;;129.82;37.75;;;;;;;;;;5056298;28;20048;-77
2022/12/26 08:24:49;;;;;;;106.22;38.35;;;;;;;;;;5062730;28;20394;-80
2022/12/26 08:27:35;;;;;;;125.47;39.58;;;;;;;;;;5056345;28;20041;-80
2022/12/26 08:30:20;;;;;;;115.82;40.40;;;;;;;;;;5055769;28;20037;-81
2022/12/26 08:33:06;;;;;;;122.28;39.05;;;;;;;;;;5056384;28;20037;-76
2022/12/26 08:35:51;;;;;;;132.45;44.55;;;;;;;;;;5055722;28;20045;-78
2022/12/26 08:38:38;;;;;;;134.73;46.35;;;;;;;;;;5056039;28;20057;-82
2022/12/26 08:41:24;;;;;;;139.50;49.30;;;;;;;;;;5056023;28;20037;-81
2022/12/26 08:44:11;;;;;;;119.78;43.55;;;;;;;;;;5055243;28;20045;-82
2022/12/26 08:46:57;;;;;;;161.10;70.53;;;;;;;;;;5062883;28;20037;-81
2022/12/26 08:49:42;;;;;;;137.63;48.15;;;;;;;;;;5056194;28;20475;-78
2022/12/26 08:52:28;;;;;;;204.63;67.85;;;;;;;;;;5055743;28;20040;-78
2022/12/26 08:55:13;;;;;;;210.13;74.28;;;;;;;;;;5062726;28;20045;-82
2022/12/26 08:57:59;;;;;;;115.05;45.42;;;;;;;;;;5056680;28;20049;-78
2022/12/26 09:00:45;;;;;;;150.02;59.40;;;;;;;;;;5062130;28;20049;-78
2022/12/26 09:03:30;;;;;;;126.90;48.08;;;;;;;;;;5055617;28;20041;-81
2022/12/26 09:06:16;;;;;;;147.85;47.85;;;;;;;;;;5061912;28;20037;-81
2022/12/26 09:09:02;;;;;;;131.25;49.75;;;;;;;;;;5055627;28;20049;-78
2022/12/26 09:11:47;;;;;;;137.10;48.47;;;;;;;;;;5062185;28;20049;-78
2022/12/26 09:14:32;;;;;;;113.82;45.05;;;;;;;;;;5055558;28;20041;-82
2022/12/26 09:17:18;;;;;;;155.68;49.67;;;;;;;;;;5054574;28;20045;-78
2022/12/26 09:20:05;;;;;;;155.98;51.30;;;;;;;;;;5055523;28;20045;-78
2022/12/26 09:22:50;;;;;;;154.00;55.83;;;;;;;;;;5069078;28;20036;-75
2022/12/26 09:25:36;;;;;;;157.55;56.35;;;;;;;;;;5071018;28;20045;-78
2022/12/26 09:28:21;;;;;;;145.45;53.10;;;;;;;;;;5055802;28;20053;-75
2022/12/26 09:31:10;;;;;;;134.65;48.90;;;;;;;;;;5056096;28;20033;-82
2022/12/26 09:33:56;;;;;;;120.72;46.30;;;;;;;;;;5056135;28;20049;-82
2022/12/26 09:36:41;;;;;;;101.60;41.78;;;;;;;;;;5053963;28;20078;-82
2022/12/26 09:39:27;;;;;;;98.68;41.95;;;;;;;;;;5054816;28;20478;-80
2022/12/26 09:42:41;;;;;;;116.55;46.03;;;;;;;;;;5055151;28;20041;-87
2022/12/26 09:45:44;;;;;;;98.90;42.67;;;;;;;;;;5061456;28;20045;-81
2022/12/26 09:48:48;;;;;;;122.85;49.13;;;;;;;;;;5055802;28;20044;-88
2022/12/26 09:51:35;;;;;;;127.60;55.80;;;;;;;;;;5056155;28;20421;-86
2022/12/26 09:54:30;;;;;;;160.82;64.32;;;;;;;;;;5054887;28;20040;-78
2022/12/26 09:57:18;;;;;;;190.65;76.00;;;;;;;;;;5055142;28;20057;-81
2022/12/26 10:00:06;;;;;;;147.13;58.78;;;;;;;;;;5055079;28;20478;-78
2022/12/26 10:02:59;;;;;;;149.15;59.95;;;;;;;;;;5054463;28;20041;-79
2022/12/26 10:06:00;;;;;;;157.38;62.35;;;;;;;;;;5054333;28;20049;-85
2022/12/26 10:09:13;;;;;;;183.10;73.55;;;;;;;;;;5054505;28;20044;-86
2022/12/26 10:12:02;;;;;;;162.82;66.75;;;;;;;;;;5054277;28;20049;-85
2022/12/26 10:15:02;;;;;;;154.40;62.90;;;;;;;;;;5055441;28;20049;-86
2022/12/26 10:18:26;;;;;;;186.88;76.20;;;;;;;;;;5054687;28;20045;-86
2022/12/26 10:21:41;;;;;;;164.52;63.35;;;;;;;;;;5062496;28;20045;-80
2022/12/26 10:24:32;;;;;;;163.87;67.30;;;;;;;;;;5060561;28;20475;-79
2022/12/26 10:27:19;;;;;;;154.50;60.75;;;;;;;;;;5054639;28;20033;-86
2022/12/26 10:30:12;;;;;;;138.32;52.47;;;;;;;;;;5059923;28;20045;-86
2022/12/26 10:33:03;;;;;;;111.47;46.22;;;;;;;;;;5054330;28;20049;-86
2022/12/26 10:35:49;;;;;;;127.10;50.20;;;;;;;;;;5054518;28;20040;-80
2022/12/26 10:38:43;;;;;;;104.03;45.60;;;;;;;;;;5059277;28;20053;-86
2022/12/26 10:41:41;;;;;;;109.60;48.10;;;;;;;;;;5046271;28;20398;-86
2022/12/26 10:44:27;;;;;;;134.48;69.53;;;;;;;;;;5053859;28;20475;-86
2022/12/26 10:47:22;;;;;;;79.68;39.80;;;;;;;;;;5053913;28;20041;-87
2022/12/26 10:50:18;;;;;;;101.53;50.72;;;;;;;;;;5054127;28;20049;-87
2022/12/26 10:53:08;;;;;;;111.40;48.17;;;;;;;;;;5054024;28;20045;-87
2022/12/26 10:55:55;;;;;;;103.30;45.63;;;;;;;;;;5054269;28;20076;-87
2022/12/26 10:58:42;;;;;;;107.25;49.75;;;;;;;;;;5052924;28;20057;-79
2022/12/26 11:01:28;;;;;;;96.47;47.95;;;;;;;;;;5053404;28;20049;-87
2022/12/26 11:04:22;;;;;;;99.13;47.80;;;;;;;;;;5053422;28;20048;-79
2022/12/26 11:07:10;;;;;;;102.80;48.72;;;;;;;;;;5053646;28;20390;-86
2022/12/26 11:09:59;;;;;;;113.53;50.47;;;;;;;;;;5053471;28;20037;-79
2022/12/26 11:12:50;;;;;;;92.10;45.55;;;;;;;;;;5059293;28;20041;-86
2022/12/26 11:15:51;;;;;;;93.80;43.50;;;;;;;;;;5054081;28;20033;-87
2022/12/26 11:18:48;;;;;;;101.68;45.20;;;;;;;;;;5053155;28;20049;-79
2022/12/26 11:21:33;;;;;;;89.57;41.08;;;;;;;;;;5056642;28;20049;-86
2022/12/26 11:24:19;;;;;;;98.55;46.58;;;;;;;;;;5058603;28;20048;-87
2022/12/26 11:27:19;;;;;;;97.38;48.53;;;;;;;;;;5058032;28;20033;-79
2022/12/26 11:30:13;;;;;;;98.32;45.88;;;;;;;;;;5057779;28;20044;-78
2022/12/26 11:33:04;;;;;;;101.65;50.15;;;;;;;;;;5057212;28;20049;-79
2022/12/26 11:35:58;;;;;;;109.55;49.83;;;;;;;;;;5057557;28;20045;-79
2022/12/26 11:38:45;;;;;;;97.75;47.55;;;;;;;;;;5058801;28;20474;-86
2022/12/26 11:41:40;;;;;;;92.75;45.33;;;;;;;;;;5067763;28;20033;-79
2022/12/26 11:44:29;;;;;;;94.72;44.80;;;;;;;;;;5080041;28;20037;-86
2022/12/26 11:47:18;;;;;;;94.18;44.55;;;;;;;;;;5068679;28;20041;-79
2022/12/26 11:50:03;;;;;;;85.00;43.13;;;;;;;;;;5057336;28;20049;-78
2022/12/26 11:52:52;;;;;;;93.22;45.33;;;;;;;;;;5056544;28;20045;-86
2022/12/26 11:55:38;;;;;;;79.85;37.63;;;;;;;;;;5057441;28;20049;-86
2022/12/26 11:58:26;;;;;;;90.35;45.38;;;;;;;;;;5055206;28;20053;-78
2022/12/26 12:01:15;;;;;;;936.20;466.45;;;;;;;;;;5062739;28;20041;-79
2022/12/26 12:04:00;;;;;;;130.77;60.15;;;;;;;;;;5058663;28;20041;-86
2022/12/26 12:07:33;;;;;;;165.15;78.57;;;;;;;;;;5062509;28;20045;-86
2022/12/26 12:10:53;;;;;;;96.30;49.00;;;;;;;;;;5042033;28;20045;-87
2022/12/26 12:14:09;;;;;;;85.60;46.35;;;;;;;;;;5047822;28;20045;-87
2022/12/26 12:17:05;;;;;;;;;;;;;;;;;;5056823;28;20041;-87
2022/12/26 12:19:58;;;;;;;69.20;34.72;;;;;;;;;;5056859;28;19914;-87
2022/12/26 12:23:05;;;;;;;75.55;38.33;;;;;;;;;;5056483;28;20041;-86
2022/12/26 12:26:26;;;;;;;73.63;39.17;;;;;;;;;;5056652;28;20423;-87
2022/12/26 12:29:32;;;;;;;70.07;37.90;;;;;;;;;;5056743;28;20061;-87
2022/12/26 12:32:25;;;;;;;63.00;32.60;;;;;;;;;;5061409;28;20037;-87
2022/12/26 12:35:36;;;;;;;61.50;31.27;;;;;;;;;;5056683;28;20041;-87
2022/12/26 12:38:23;;;;;;;59.28;31.35;;;;;;;;;;5055696;28;20045;-79
2022/12/26 12:41:26;;;;;;;62.00;33.95;;;;;;;;;;5055958;28;20048;-86
2022/12/26 12:44:55;;;;;;;86.07;42.45;;;;;;;;;;5056083;28;20048;-79
2022/12/26 12:48:04;;;;;;;69.78;36.00;;;;;;;;;;5056045;28;20037;-79
2022/12/26 12:50:58;;;;;;;68.82;35.83;;;;;;;;;;5055150;28;20471;-86
2022/12/26 12:54:01;;;;;;;60.20;34.42;;;;;;;;;;5055143;28;20041;-87
2022/12/26 12:57:02;;;;;;;67.45;36.95;;;;;;;;;;5054651;28;20137;-80
2022/12/26 13:00:12;;;;;;;59.08;33.05;;;;;;;;;;5055538;28;20045;-79
2022/12/26 13:03:22;;;;;;;59.40;33.97;;;;;;;;;;5061149;28;20045;-79
2022/12/26 13:06:35;;;;;;;60.08;33.65;;;;;;;;;;5061981;28;20487;-85
2022/12/26 13:10:10;;;;;;;61.70;31.15;;;;;;;;;;5055877;28;20032;-87
2022/12/26 13:12:57;;;;;;;51.97;28.95;;;;;;;;;;5062385;28;20045;-79
2022/12/26 13:15:47;;;;;;;57.55;29.92;;;;;;;;;;5055705;28;20048;-80
2022/12/26 13:18:38;;;;;;;65.80;34.97;;;;;;;;;;5055100;28;20040;-86
2022/12/26 13:21:25;;;;;;;61.72;33.00;;;;;;;;;;5055335;28;20044;-87
2022/12/26 13:24:22;;;;;;;50.00;27.85;;;;;;;;;;5055318;28;20048;-80
2022/12/26 13:27:26;;;;;;;63.83;34.25;;;;;;;;;;5061785;28;20044;-79
2022/12/26 13:30:14;;;;;;;62.00;32.70;;;;;;;;;;5055000;28;20049;-79
2022/12/26 13:32:59;;;;;;;60.08;32.10;;;;;;;;;;5055550;28;20037;-87
2022/12/26 13:36:01;;;;;;;62.90;32.58;;;;;;;;;;5055197;28;20041;-79
2022/12/26 13:38:55;;;;;;;57.63;33.97;;;;;;;;;;5068302;28;20049;-86
2022/12/26 13:44:55;;;;;;;61.00;32.22;;;;;;;;;;5060931;28;20390;-79
2022/12/26 13:47:40;;;;;;;59.78;32.50;;;;;;;;;;5058998;28;20041;-86
2022/12/26 13:50:46;;;;;;;74.82;35.22;;;;;;;;;;5063226;28;20053;-85
2022/12/26 13:53:36;;;;;;;68.25;35.03;;;;;;;;;;5058671;28;20033;-80
2022/12/26 13:56:21;;;;;;;66.00;34.13;;;;;;;;;;5055097;28;20049;-79
2022/12/26 13:59:55;;;;;;;72.40;36.70;;;;;;;;;;5064889;28;20037;-80
2022/12/26 14:02:55;;;;;;;67.40;34.58;;;;;;;;;;5066295;28;20045;-85
2022/12/26 14:06:15;;;;;;;69.80;35.35;;;;;;;;;;5065407;28;20029;-87
2022/12/26 14:09:19;;;;;;;76.07;36.97;;;;;;;;;;5063042;28;20037;-86
2022/12/26 14:12:29;;;;;;;67.60;37.25;;;;;;;;;;5053353;28;20040;-86
2022/12/26 14:15:34;;;;;;;76.55;39.40;;;;;;;;;;5055256;28;20041;-87
2022/12/26 14:18:28;;;;;;;76.63;36.80;;;;;;;;;;5054984;28;20029;-87
2022/12/26 14:21:32;;;;;;;70.70;36.22;;;;;;;;;;5060889;28;20273;-80
2022/12/26 14:24:25;;;;;;;78.55;38.97;;;;;;;;;;5053962;28;20049;-82
2022/12/26 14:27:23;;;;;;;83.72;40.95;;;;;;;;;;5053514;28;20410;-80
2022/12/26 14:30:19;;;;;;;76.60;40.95;;;;;;;;;;5053773;28;20044;-80
2022/12/26 14:33:50;;;;;;;93.05;45.13;;;;;;;;;;5053609;28;20399;-80
2022/12/26 14:36:47;;;;;;;84.43;45.25;;;;;;;;;;5048441;28;20037;-81
2022/12/26 14:40:07;;;;;;;88.93;45.30;;;;;;;;;;5059571;28;20479;-80
2022/12/26 14:43:09;;;;;;;94.88;43.55;;;;;;;;;;5057627;28;20064;-87
2022/12/26 14:45:56;;;;;;;88.35;44.40;;;;;;;;;;5056569;28;20049;-88
2022/12/26 14:48:46;;;;;;;84.25;44.55;;;;;;;;;;5053847;28;20044;-82
2022/12/26 14:51:35;;;;;;;96.28;49.58;;;;;;;;;;5053881;28;20068;-87
2022/12/26 14:54:21;;;;;;;118.10;56.92;;;;;;;;;;5053732;28;20486;-81
2022/12/26 14:57:44;;;;;;;110.28;54.85;;;;;;;;;;5052881;28;20045;-81
2022/12/26 15:00:31;;;;;;;114.47;59.25;;;;;;;;;;5049766;28;20053;-81
2022/12/26 15:03:36;;;;;;;126.93;68.35;;;;;;;;;;5056373;28;20045;-86
2022/12/26 15:06:31;;;;;;;147.45;73.70;;;;;;;;;;5055198;28;20044;-82
2022/12/26 15:09:35;;;;;;;149.35;77.70;;;;;;;;;;5057403;28;20479;-87
2022/12/26 15:12:33;;;;;;;134.30;69.65;;;;;;;;;;5062596;28;20049;-88
2022/12/26 15:15:46;;;;;;;152.68;78.20;;;;;;;;;;5060819;28;20485;-82
2022/12/26 15:18:37;;;;;;;170.90;83.10;;;;;;;;;;5054413;28;20033;-82
2022/12/26 15:21:47;;;;;;;168.15;86.70;;;;;;;;;;5053706;28;20041;-80
2022/12/26 15:24:54;;;;;;;179.75;96.15;;;;;;;;;;5054190;28;20442;-87
2022/12/26 15:27:41;;;;;;;178.63;87.22;;;;;;;;;;5055392;28;20037;-87
2022/12/26 15:30:42;;;;;;;156.02;78.68;;;;;;;;;;5056409;28;20397;-86
2022/12/26 15:33:57;;;;;;;168.10;88.30;;;;;;;;;;5044944;28;20037;-80
2022/12/26 15:36:46;;;;;;;162.30;81.10;;;;;;;;;;5053792;28;20041;-85
2022/12/26 15:39:34;;;;;;;161.70;82.50;;;;;;;;;;5054708;28;20044;-80
2022/12/26 15:42:48;;;;;;;145.60;74.07;;;;;;;;;;5053164;28;20044;-80
2022/12/26 15:45:51;;;;;;;161.52;85.78;;;;;;;;;;5053556;28;20390;-86
2022/12/26 15:49:05;;;;;;;185.43;96.78;;;;;;;;;;5058720;28;20041;-80
2022/12/26 15:51:59;;;;;;;324.58;175.88;;;;;;;;;;5053025;28;20045;-85
2022/12/26 15:55:33;;;;;;;248.77;139.30;;;;;;;;;;5059620;28;20052;-86
2022/12/26 15:58:21;;;;;;;256.05;141.85;;;;;;;;;;5030956;28;20531;-80
2022/12/26 16:01:09;;;;;;;220.15;126.35;;;;;;;;;;5024185;28;20395;-85
2022/12/26 16:03:57;;;;;;;218.65;123.85;;;;;;;;;;5052354;28;20048;-80
2022/12/26 16:07:13;;;;;;;219.23;123.70;;;;;;;;;;5058669;28;20053;-84
2022/12/26 16:09:58;;;;;;;196.18;106.38;;;;;;;;;;5056732;28;20037;-85
2022/12/26 16:13:11;;;;;;;204.98;117.28;;;;;;;;;;5056725;28;20045;-80
2022/12/26 16:15:59;;;;;;;249.05;135.70;;;;;;;;;;5056548;28;20040;-83
2022/12/26 16:18:44;;;;;;;246.48;131.18;;;;;;;;;;5086896;28;20041;-83
2022/12/26 16:24:53;;;;;;;220.82;116.22;;;;;;;;;;5034981;28;20084;-85
2022/12/26 16:27:43;;;;;;;222.30;114.85;;;;;;;;;;5034545;28;20037;-86
2022/12/26 16:30:34;;;;;;;250.27;125.25;;;;;;;;;;5054775;28;20044;-86
2022/12/26 16:33:20;;;;;;;224.93;115.40;;;;;;;;;;5056782;28;20483;-83
2022/12/26 16:36:13;;;;;;;211.90;114.90;;;;;;;;;;5056367;28;20041;-82
2022/12/26 16:38:59;;;;;;;195.88;107.50;;;;;;;;;;5062337;28;20376;-79
2022/12/26 16:42:03;;;;;;;197.43;106.50;;;;;;;;;;5055252;28;20393;-82
2022/12/26 16:44:49;;;;;;;205.85;106.38;;;;;;;;;;5054680;28;20037;-79
2022/12/26 16:47:34;;;;;;;211.82;114.03;;;;;;;;;;5055442;28;20375;-80
2022/12/26 16:50:25;;;;;;;186.88;98.72;;;;;;;;;;5054580;28;20045;-84
2022/12/26 16:53:14;;;;;;;174.52;91.45;;;;;;;;;;5055553;28;20394;-80
2022/12/26 16:56:27;;;;;;;224.27;111.88;;;;;;;;;;5062243;28;20037;-80
2022/12/26 16:59:20;;;;;;;224.88;114.43;;;;;;;;;;5055495;28;20045;-80
2022/12/26 17:02:23;;;;;;;259.55;134.95;;;;;;;;;;5054704;28;20048;-80
2022/12/26 17:05:21;;;;;;;265.52;138.18;;;;;;;;;;5055450;28;20490;-79
2022/12/26 17:08:05;;;;;;;289.42;141.73;;;;;;;;;;5054855;28;20391;-83
2022/12/26 17:10:50;;;;;;;362.10;185.48;;;;;;;;;;5054582;28;20041;-81
2022/12/26 17:13:36;;;;;;;395.17;215.38;;;;;;;;;;5056725;28;20048;-81
2022/12/26 17:16:25;;;;;;;330.23;170.27;;;;;;;;;;5055996;28;20053;-80
2022/12/26 17:19:23;;;;;;;259.98;137.10;;;;;;;;;;5061455;28;20037;-80
2022/12/26 17:22:16;;;;;;;211.90;111.50;;;;;;;;;;5055488;28;20482;-80
2022/12/26 17:25:25;;;;;;;206.35;106.93;;;;;;;;;;5062052;28;20042;-80
2022/12/26 17:28:16;;;;;;;215.90;112.00;;;;;;;;;;5059446;28;20038;-82
2022/12/26 17:31:15;;;;;;;202.98;105.90;;;;;;;;;;5055049;28;20391;-78
2022/12/26 17:34:04;;;;;;;199.65;106.65;;;;;;;;;;5060641;28;20045;-81
2022/12/26 17:36:50;;;;;;;230.98;124.53;;;;;;;;;;5055523;28;20041;-80
2022/12/26 17:39:35;;;;;;;241.38;126.90;;;;;;;;;;5054744;28;20041;-78
2022/12/26 17:42:20;;;;;;;265.55;147.18;;;;;;;;;;5054869;28;20402;-81
2022/12/26 17:45:13;;;;;;;274.25;162.82;;;;;;;;;;5054961;28;20049;-78
2022/12/26 17:47:58;;;;;;;378.48;223.38;;;;;;;;;;5060711;28;20032;-80
2022/12/26 17:50:46;;;;;;;278.60;154.70;;;;;;;;;;5054779;28;20048;-79
2022/12/26 17:53:39;;;;;;;262.45;138.88;;;;;;;;;;5054907;28;20037;-81
2022/12/26 17:56:26;;;;;;;256.20;137.05;;;;;;;;;;5055590;28;20045;-80
2022/12/26 17:59:14;;;;;;;301.90;161.75;;;;;;;;;;5054704;28;20053;-79
2022/12/26 18:01:59;;;;;;;290.15;153.52;;;;;;;;;;5054573;28;20048;-79
2022/12/26 18:04:46;;;;;;;276.20;146.30;;;;;;;;;;5053903;28;20037;-79
2022/12/26 18:07:32;;;;;;;237.30;128.93;;;;;;;;;;5053420;28;20044;-79
2022/12/26 18:10:21;;;;;;;223.32;119.28;;;;;;;;;;5054459;28;20394;-80
2022/12/26 18:13:13;;;;;;;214.48;111.35;;;;;;;;;;5054725;28;20045;-79
2022/12/26 18:15:58;;;;;;;231.57;126.57;;;;;;;;;;5054555;28;20036;-80
2022/12/26 18:18:46;;;;;;;187.85;97.03;;;;;;;;;;5053676;28;20349;-79
2022/12/26 18:21:31;;;;;;;188.43;98.50;;;;;;;;;;5054481;28;20045;-80
2022/12/26 18:24:17;;;;;;;219.15;115.75;;;;;;;;;;5054209;28;20040;-80
2022/12/26 18:27:03;;;;;;;192.43;108.35;;;;;;;;;;5054262;28;20037;-79
2022/12/26 18:29:49;;;;;;;216.52;117.90;;;;;;;;;;5053204;28;20410;-79
2022/12/26 18:32:34;;;;;;;178.95;99.38;;;;;;;;;;5053690;28;20049;-80
2022/12/26 18:35:20;;;;;;;153.32;87.90;;;;;;;;;;5058909;28;20041;-78
2022/12/26 18:38:09;;;;;;;157.57;86.90;;;;;;;;;;5085690;28;20053;-80